Time;durP1;ratioP1;P1;durP2;ratioP2;P2;SDS_P1;SDS_P2;PMS_P1;PMS_P2;Temp;Humidity;BMP_temperature;BMP_pressure;BME280_temperature;BME280_humidity;BME280_pressure;Samples;Min_cycle;Max_cycle;Signal;HPM_P1;HPM_P2
2023/06/08 00:01:28;;;;;;;6.35;3.00;;;20.50;61.10;;;;;;4956530;28;20041;-68
2023/06/08 00:03:54;;;;;;;5.32;3.20;;;20.50;61.00;;;;;;4966909;28;20061;-68
2023/06/08 00:06:22;;;;;;;4.90;3.07;;;20.50;61.20;;;;;;4950537;28;20027;-68
2023/06/08 00:08:49;;;;;;;5.90;2.97;;;20.40;61.30;;;;;;4974854;28;20022;-68
2023/06/08 00:11:15;;;;;;;7.85;2.72;;;20.40;61.30;;;;;;4947901;28;20516;-68
2023/06/08 00:13:41;;;;;;;5.43;2.60;;;20.40;61.30;;;;;;4979868;28;20029;-68
2023/06/08 00:16:07;;;;;;;5.10;3.10;;;20.40;61.40;;;;;;4975966;28;20408;-69
2023/06/08 00:18:36;;;;;;;6.65;2.80;;;20.40;61.50;;;;;;4961646;28;20260;-68
2023/06/08 00:21:02;;;;;;;5.70;3.10;;;20.40;61.50;;;;;;4941191;28;20046;-68
2023/06/08 00:23:28;;;;;;;5.07;3.00;;;20.30;61.60;;;;;;4975469;28;20201;-69
2023/06/08 00:25:54;;;;;;;5.68;2.92;;;20.30;61.60;;;;;;4954939;28;20038;-68
2023/06/08 00:28:20;;;;;;;4.93;2.80;;;20.30;61.70;;;;;;4977143;28;20045;-68
2023/06/08 00:30:46;;;;;;;5.47;3.00;;;20.20;61.70;;;;;;4980381;28;20041;-69
2023/06/08 00:33:12;;;;;;;5.43;2.80;;;20.20;61.80;;;;;;4941721;28;20034;-68
2023/06/08 00:35:38;;;;;;;8.33;3.50;;;20.20;61.80;;;;;;4948081;28;20263;-69
2023/06/08 00:38:03;;;;;;;4.50;2.70;;;20.10;61.80;;;;;;4975562;28;20338;-68
2023/06/08 00:40:29;;;;;;;5.35;3.13;;;20.10;61.80;;;;;;4954746;28;20625;-69
2023/06/08 00:42:55;;;;;;;6.17;3.10;;;20.00;61.90;;;;;;4979368;28;20052;-68
2023/06/08 00:45:21;;;;;;;6.30;3.20;;;20.00;62.00;;;;;;4978197;28;20392;-68
2023/06/08 00:47:47;;;;;;;5.00;3.13;;;19.90;62.30;;;;;;4982152;28;20061;-69
2023/06/08 00:50:16;;;;;;;5.35;2.60;;;19.90;62.40;;;;;;4942384;28;20053;-68
2023/06/08 00:52:44;;;;;;;5.15;2.80;;;19.90;62.50;;;;;;4983246;28;20029;-68
2023/06/08 00:55:10;;;;;;;5.00;3.20;;;19.80;62.60;;;;;;4967142;28;20018;-68
2023/06/08 00:57:37;;;;;;;5.80;2.80;;;19.80;62.60;;;;;;4956479;28;20030;-68
2023/06/08 01:00:04;;;;;;;6.68;3.20;;;19.80;62.70;;;;;;4978910;28;20046;-68
2023/06/08 01:02:31;;;;;;;5.13;2.88;;;19.80;62.80;;;;;;4964428;28;20301;-69
2023/06/08 01:04:57;;;;;;;5.05;2.88;;;19.70;62.90;;;;;;4958936;28;20366;-68
2023/06/08 01:07:51;;;;;;;5.10;3.03;;;19.70;62.90;;;;;;4963356;28;20045;-68
2023/06/08 01:10:21;;;;;;;4.50;2.90;;;19.70;63.70;;;;;;4966490;28;20018;-68
2023/06/08 01:12:56;;;;;;;4.80;2.90;;;19.70;62.90;;;;;;4954703;28;20125;-69
2023/06/08 01:15:33;;;;;;;4.50;2.83;;;19.60;63.60;;;;;;4977236;28;20509;-69
2023/06/08 01:18:04;;;;;;;6.33;2.87;;;19.60;63.60;;;;;;4985057;28;20129;-68
2023/06/08 01:20:47;;;;;;;5.75;3.10;;;19.60;63.20;;;;;;4961372;28;20038;-68
2023/06/08 01:23:37;;;;;;;6.80;3.10;;;19.50;63.80;;;;;;4964619;28;20504;-68
2023/06/08 01:26:04;;;;;;;5.72;2.78;;;19.50;64.60;;;;;;4964040;28;20115;-68
2023/06/08 01:28:30;;;;;;;4.85;3.08;;;19.40;63.20;;;;;;4951233;28;20244;-68
2023/06/08 01:30:58;;;;;;;5.10;3.10;;;19.40;63.20;;;;;;4982229;28;20399;-68
2023/06/08 01:33:27;;;;;;;6.32;2.95;;;19.30;63.40;;;;;;4978865;28;20563;-68
2023/06/08 01:36:19;;;;;;;6.13;3.20;;;19.30;63.60;;;;;;4958137;28;20033;-69
2023/06/08 01:38:51;;;;;;;6.05;3.30;;;19.30;65.00;;;;;;4970710;28;20034;-68
2023/06/08 01:41:23;;;;;;;5.40;3.03;;;19.20;63.90;;;;;;4969890;28;20485;-68
2023/06/08 01:43:51;;;;;;;5.23;3.00;;;19.10;63.80;;;;;;4943664;28;20478;-69
2023/06/08 01:46:22;;;;;;;5.47;3.08;;;19.10;63.60;;;;;;4977782;28;20095;-68
2023/06/08 01:48:49;;;;;;;6.78;3.45;;;19.00;63.60;;;;;;4979803;28;20389;-68
2023/06/08 01:51:17;;;;;;;6.82;3.47;;;18.90;63.80;;;;;;4956058;28;20019;-68
2023/06/08 01:53:42;;;;;;;6.28;3.10;;;18.90;64.00;;;;;;4967333;28;20468;-68
2023/06/08 01:56:08;;;;;;;6.23;3.10;;;18.90;64.10;;;;;;4963475;28;20029;-68
2023/06/08 01:58:34;;;;;;;4.88;3.03;;;18.90;64.20;;;;;;4949838;28;20540;-68
2023/06/08 02:01:00;;;;;;;6.73;3.10;;;18.80;64.10;;;;;;4973725;28;20394;-68
2023/06/08 02:03:25;;;;;;;6.57;3.05;;;18.80;64.30;;;;;;4975153;28;20034;-68
2023/06/08 02:05:51;;;;;;;6.20;3.33;;;18.70;64.20;;;;;;4978515;28;20519;-68
2023/06/08 02:08:17;;;;;;;6.10;3.00;;;18.70;64.40;;;;;;4950166;28;20294;-68
2023/06/08 02:10:42;;;;;;;5.73;3.10;;;18.70;64.50;;;;;;4981340;28;20030;-68
2023/06/08 02:13:08;;;;;;;7.78;3.20;;;18.60;64.50;;;;;;4951956;28;20034;-68
2023/06/08 02:15:34;;;;;;;5.47;3.20;;;18.60;64.50;;;;;;4966921;28;20690;-68
2023/06/08 02:18:00;;;;;;;5.35;3.10;;;18.50;64.60;;;;;;4968674;28;20348;-68
2023/06/08 02:20:26;;;;;;;5.18;2.97;;;18.50;64.80;;;;;;4975334;28;20060;-68
2023/06/08 02:22:52;;;;;;;5.50;3.10;;;18.40;64.80;;;;;;4962352;28;20541;-68
2023/06/08 02:25:17;;;;;;;5.83;3.33;;;18.40;64.80;;;;;;4962997;28;20041;-68
2023/06/08 02:27:44;;;;;;;4.63;2.83;;;18.30;65.00;;;;;;4956664;28;20468;-68
2023/06/08 02:30:11;;;;;;;6.28;3.00;;;18.30;65.00;;;;;;4947642;28;20647;-68
2023/06/08 02:32:41;;;;;;;5.95;3.28;;;18.30;65.30;;;;;;4979784;28;20144;-69
2023/06/08 02:35:08;;;;;;;5.60;3.00;;;18.20;65.40;;;;;;4975424;28;20022;-68
2023/06/08 02:37:36;;;;;;;5.95;3.20;;;18.20;65.30;;;;;;4947775;28;20125;-68
2023/06/08 02:40:04;;;;;;;5.82;3.30;;;18.20;65.30;;;;;;4964188;28;20786;-68
2023/06/08 02:42:30;;;;;;;5.60;3.00;;;18.10;65.40;;;;;;4975679;28;20141;-68
2023/06/08 02:44:56;;;;;;;5.53;3.13;;;18.10;65.50;;;;;;4939366;28;20058;-68
2023/06/08 02:47:21;;;;;;;6.20;3.13;;;18.10;65.60;;;;;;4977670;28;20231;-68
2023/06/08 02:49:47;;;;;;;8.45;3.80;;;18.00;65.60;;;;;;4976404;28;20026;-68
2023/06/08 02:52:13;;;;;;;6.47;3.30;;;18.00;65.60;;;;;;4961840;28;20401;-68
2023/06/08 02:54:39;;;;;;;6.50;3.13;;;18.00;65.90;;;;;;4976655;28;20029;-68
2023/06/08 02:57:05;;;;;;;6.60;3.30;;;17.90;66.60;;;;;;4948766;28;20085;-68
2023/06/08 02:59:31;;;;;;;7.20;3.30;;;17.90;66.00;;;;;;4961318;28;20046;-68
2023/06/08 03:01:57;;;;;;;5.47;3.17;;;17.90;65.90;;;;;;4953928;28;20040;-68
2023/06/08 03:04:30;;;;;;;6.15;3.20;;;17.90;66.00;;;;;;4973421;28;20258;-68
2023/06/08 03:06:56;;;;;;;7.97;3.33;;;17.90;67.00;;;;;;4984427;28;20117;-68
2023/06/08 03:09:29;;;;;;;6.97;3.17;;;17.80;66.00;;;;;;4956508;28;20056;-68
2023/06/08 03:11:59;;;;;;;6.13;3.40;;;17.80;66.40;;;;;;4968279;28;20038;-68
2023/06/08 03:14:28;;;;;;;6.60;3.28;;;17.80;66.30;;;;;;4975227;28;20015;-68
2023/06/08 03:17:02;;;;;;;8.10;3.60;;;17.70;66.30;;;;;;4939785;28;20046;-68
2023/06/08 03:19:31;;;;;;;6.68;3.20;;;17.70;66.60;;;;;;4977360;28;20129;-68
2023/06/08 03:22:02;;;;;;;5.30;3.00;;;17.60;66.50;;;;;;4982747;28;20038;-68
2023/06/08 03:24:31;;;;;;;6.43;3.13;;;17.60;66.60;;;;;;4957756;28;20864;-68
2023/06/08 03:26:58;;;;;;;5.05;3.20;;;17.60;66.60;;;;;;4965275;28;20026;-68
2023/06/08 03:29:25;;;;;;;6.87;3.17;;;17.50;66.70;;;;;;4975381;28;20026;-68
2023/06/08 03:31:51;;;;;;;5.30;3.05;;;17.50;66.80;;;;;;4949912;28;20034;-69
2023/06/08 03:34:17;;;;;;;6.45;3.17;;;17.50;66.80;;;;;;4946984;28;20319;-68
2023/06/08 03:36:44;;;;;;;5.50;3.20;;;17.50;67.10;;;;;;4980223;28;20097;-68
2023/06/08 03:39:10;;;;;;;5.68;3.30;;;17.40;67.10;;;;;;4966612;28;20053;-68
2023/06/08 03:41:36;;;;;;;6.07;3.00;;;17.40;67.20;;;;;;4959442;28;20122;-69
2023/06/08 03:44:01;;;;;;;5.50;3.22;;;17.40;67.10;;;;;;4983080;28;20417;-68
2023/06/08 03:46:27;;;;;;;5.93;3.03;;;17.40;67.20;;;;;;4977996;28;20033;-68
2023/06/08 03:48:53;;;;;;;5.15;3.10;;;17.40;67.20;;;;;;4961962;28;20712;-68
2023/06/08 03:51:23;;;;;;;5.93;3.10;;;17.40;67.20;;;;;;4960434;28;20171;-68
2023/06/08 03:53:52;;;;;;;6.00;3.13;;;17.40;67.40;;;;;;4984273;28;20435;-68
2023/06/08 03:56:18;;;;;;;5.23;2.93;;;17.30;67.40;;;;;;4963983;28;20686;-68
2023/06/08 03:58:44;;;;;;;6.07;3.13;;;17.30;67.50;;;;;;4970948;28;20393;-68
2023/06/08 04:01:11;;;;;;;6.65;3.47;;;17.30;67.60;;;;;;4975016;28;20677;-68
2023/06/08 04:03:37;;;;;;;5.18;3.10;;;17.20;67.70;;;;;;4952449;28;20145;-68
2023/06/08 04:06:05;;;;;;;7.00;3.17;;;17.30;67.60;;;;;;4963506;28;20282;-68
2023/06/08 04:08:32;;;;;;;6.55;3.50;;;17.30;68.20;;;;;;4983798;28;20031;-69
2023/06/08 04:11:01;;;;;;;7.70;3.35;;;17.30;67.90;;;;;;4962752;28;20022;-68
2023/06/08 04:13:27;;;;;;;5.45;3.03;;;17.20;68.20;;;;;;4966565;28;20065;-68
2023/06/08 04:15:53;;;;;;;6.77;3.60;;;17.20;67.90;;;;;;4978117;28;20109;-68
2023/06/08 04:18:18;;;;;;;6.53;3.38;;;17.20;68.10;;;;;;4950819;28;20208;-68
2023/06/08 04:20:45;;;;;;;7.32;3.30;;;17.20;68.20;;;;;;4979257;28;20035;-68
2023/06/08 04:23:11;;;;;;;5.80;3.40;;;17.20;68.20;;;;;;4977921;28;20038;-68
2023/06/08 04:25:37;;;;;;;6.38;3.30;;;17.20;68.20;;;;;;4960420;28;20049;-68
2023/06/08 04:28:03;;;;;;;6.28;3.38;;;17.20;68.20;;;;;;4976165;28;20041;-68
2023/06/08 04:30:29;;;;;;;5.18;3.20;;;17.20;68.30;;;;;;4967461;28;20708;-68
2023/06/08 04:32:57;;;;;;;5.33;3.10;;;17.20;68.40;;;;;;4977960;28;20042;-68
2023/06/08 04:35:22;;;;;;;8.13;3.30;;;17.20;68.40;;;;;;4949775;28;20605;-68
2023/06/08 04:37:48;;;;;;;6.05;3.28;;;17.20;68.60;;;;;;4980966;28;20100;-68
2023/06/08 04:40:16;;;;;;;7.20;3.43;;;17.20;68.70;;;;;;4974166;28;20092;-68
2023/06/08 04:42:44;;;;;;;5.50;3.25;;;17.30;68.70;;;;;;4957386;28;20026;-68
2023/06/08 04:45:11;;;;;;;6.35;3.30;;;17.30;68.90;;;;;;4967190;28;20089;-68
2023/06/08 04:47:39;;;;;;;7.03;3.42;;;17.30;68.90;;;;;;4976330;28;20029;-68
2023/06/08 04:50:08;;;;;;;5.07;3.30;;;17.30;69.00;;;;;;4949375;28;20611;-68
2023/06/08 04:52:40;;;;;;;8.23;3.70;;;17.30;69.00;;;;;;4981091;28;20030;-68
2023/06/08 04:55:16;;;;;;;6.40;3.42;;;17.30;69.00;;;;;;4983084;28;20030;-68
2023/06/08 04:57:42;;;;;;;5.40;3.17;;;17.30;69.40;;;;;;4958250;28;20531;-69
2023/06/08 05:00:09;;;;;;;5.85;3.30;;;17.40;69.10;;;;;;4966334;28;20416;-68
2023/06/08 05:02:37;;;;;;;6.32;3.53;;;17.50;69.20;;;;;;4951143;28;20081;-68
2023/06/08 05:05:03;;;;;;;6.13;3.50;;;17.40;69.20;;;;;;4947780;28;20030;-68
2023/06/08 05:07:29;;;;;;;5.35;3.42;;;17.50;69.20;;;;;;4946331;28;20041;-69
2023/06/08 05:09:56;;;;;;;6.63;3.67;;;17.50;69.30;;;;;;4976407;28;20034;-68
2023/06/08 05:12:22;;;;;;;5.85;3.40;;;17.50;69.30;;;;;;4941601;28;20133;-68
2023/06/08 05:14:48;;;;;;;6.97;3.53;;;17.60;69.40;;;;;;4965500;28;20023;-68
2023/06/08 05:17:14;;;;;;;7.43;3.78;;;17.60;69.40;;;;;;4983705;28;20244;-69
2023/06/08 05:19:40;;;;;;;5.83;3.53;;;17.60;69.30;;;;;;4952893;28;20038;-68
2023/06/08 05:22:05;;;;;;;6.43;3.75;;;17.60;69.20;;;;;;4968209;28;20134;-68
2023/06/08 05:24:31;;;;;;;8.57;3.88;;;17.60;69.10;;;;;;4965900;28;20061;-68
2023/06/08 05:26:57;;;;;;;9.37;4.03;;;17.60;69.20;;;;;;4971654;28;20477;-68
2023/06/08 05:29:22;;;;;;;6.50;3.50;;;17.60;69.20;;;;;;4957458;28;20116;-69
2023/06/08 05:31:49;;;;;;;7.97;4.18;;;17.60;69.30;;;;;;4982158;28;20440;-68
2023/06/08 05:34:15;;;;;;;7.75;4.05;;;17.60;69.30;;;;;;4979867;28;20018;-68
2023/06/08 05:36:41;;;;;;;6.50;3.67;;;17.60;69.40;;;;;;4934404;28;20464;-69
2023/06/08 05:39:06;;;;;;;7.90;3.90;;;17.70;69.60;;;;;;4964600;28;20516;-68
2023/06/08 05:41:32;;;;;;;5.17;3.30;;;17.70;69.50;;;;;;4979086;28;20014;-69
2023/06/08 05:43:58;;;;;;;6.30;3.53;;;17.70;69.60;;;;;;4961346;28;20828;-68
2023/06/08 05:46:24;;;;;;;6.07;3.90;;;17.70;69.50;;;;;;4966215;28;20027;-68
2023/06/08 05:48:50;;;;;;;6.87;3.73;;;17.80;69.50;;;;;;4979876;28;20030;-68
2023/06/08 05:51:15;;;;;;;6.65;3.60;;;17.80;69.70;;;;;;4947022;28;20636;-68
2023/06/08 05:53:41;;;;;;;8.10;4.30;;;17.80;69.80;;;;;;4963118;28;20031;-69
2023/06/08 05:56:07;;;;;;;9.48;4.38;;;17.90;69.90;;;;;;4947729;28;20034;-69
2023/06/08 05:58:34;;;;;;;8.50;4.20;;;17.90;69.90;;;;;;4960762;28;20093;-68
2023/06/08 06:01:04;;;;;;;7.53;4.07;;;17.90;69.90;;;;;;4969557;28;20505;-68
2023/06/08 06:03:31;;;;;;;6.47;3.50;;;18.00;70.10;;;;;;4981854;28;20037;-68
2023/06/08 06:05:58;;;;;;;7.93;3.90;;;18.00;70.10;;;;;;4948460;28;20033;-68
2023/06/08 06:08:24;;;;;;;7.93;4.40;;;18.10;70.00;;;;;;4964665;28;20033;-68
2023/06/08 06:10:49;;;;;;;8.57;4.10;;;18.10;69.90;;;;;;4968810;28;20030;-68
2023/06/08 06:13:15;;;;;;;7.77;3.90;;;18.20;70.10;;;;;;4978346;28;20029;-68
2023/06/08 06:15:41;;;;;;;8.18;4.15;;;18.30;70.10;;;;;;4961586;28;20029;-68
2023/06/08 06:18:07;;;;;;;8.10;3.83;;;18.30;70.10;;;;;;4966750;28;20476;-68
2023/06/08 06:20:32;;;;;;;6.75;3.83;;;18.50;70.20;;;;;;4981288;28;20544;-69
2023/06/08 06:22:58;;;;;;;7.90;4.07;;;18.50;69.90;;;;;;4936752;28;20120;-68
2023/06/08 06:25:24;;;;;;;7.65;3.47;;;18.60;69.80;;;;;;4965691;28;20301;-68
2023/06/08 06:27:50;;;;;;;6.43;3.73;;;18.70;69.80;;;;;;4966209;28;20030;-69
2023/06/08 06:30:16;;;;;;;7.88;4.00;;;18.70;69.60;;;;;;4959465;28;20845;-69
2023/06/08 06:32:41;;;;;;;8.55;4.03;;;18.80;69.50;;;;;;4970015;28;20030;-68
2023/06/08 06:35:10;;;;;;;6.57;3.67;;;18.80;69.50;;;;;;4975563;28;20034;-68
2023/06/08 06:37:36;;;;;;;7.05;3.95;;;18.80;69.50;;;;;;4943152;28;20121;-69
2023/06/08 06:40:06;;;;;;;7.63;3.70;;;18.90;69.70;;;;;;4960579;28;20041;-69
2023/06/08 06:42:33;;;;;;;7.20;3.92;;;19.00;69.60;;;;;;4937890;28;20097;-69
2023/06/08 06:44:59;;;;;;;7.18;4.03;;;19.00;69.60;;;;;;4969598;28;20485;-69
2023/06/08 06:47:25;;;;;;;6.20;3.73;;;19.10;69.50;;;;;;4953423;28;20406;-68
2023/06/08 06:49:50;;;;;;;6.38;3.80;;;19.10;69.60;;;;;;4975472;28;20536;-69
2023/06/08 06:52:16;;;;;;;7.43;3.55;;;19.20;69.50;;;;;;4949280;28;20014;-69
2023/06/08 06:54:42;;;;;;;6.47;3.67;;;19.30;69.50;;;;;;4961353;28;20030;-69
2023/06/08 06:57:08;;;;;;;6.88;3.40;;;19.30;69.50;;;;;;4963736;28;20053;-68
2023/06/08 06:59:34;;;;;;;5.83;3.53;;;19.50;69.50;;;;;;4958944;28;20509;-68
2023/06/08 07:02:00;;;;;;;6.72;3.80;;;19.50;69.40;;;;;;4941554;28;20041;-68
2023/06/08 07:04:26;;;;;;;6.57;3.65;;;19.60;69.40;;;;;;4968603;28;20030;-68
2023/06/08 07:06:54;;;;;;;8.13;4.27;;;19.70;69.30;;;;;;4955540;28;20052;-69
2023/06/08 07:09:24;;;;;;;6.70;4.10;;;19.80;69.30;;;;;;4927526;28;20063;-68
2023/06/08 07:11:51;;;;;;;7.75;4.05;;;19.80;69.20;;;;;;4978710;28;20027;-69
2023/06/08 07:14:17;;;;;;;6.03;3.63;;;19.90;69.30;;;;;;4944317;28;20592;-69
2023/06/08 07:16:43;;;;;;;6.43;3.90;;;20.00;69.40;;;;;;4942220;28;20046;-68
2023/06/08 07:19:08;;;;;;;6.95;3.88;;;20.10;69.40;;;;;;4974009;28;20037;-68
2023/06/08 07:21:38;;;;;;;7.37;3.90;;;20.20;69.20;;;;;;4976682;28;20111;-69
2023/06/08 07:24:05;;;;;;;7.20;3.65;;;20.30;69.10;;;;;;4938250;28;20042;-68
2023/06/08 07:26:31;;;;;;;6.05;3.78;;;20.40;69.10;;;;;;4971336;28;20121;-69
2023/06/08 07:28:58;;;;;;;8.13;4.40;;;20.50;69.00;;;;;;4950294;28;20555;-68
2023/06/08 07:31:26;;;;;;;7.53;4.00;;;20.60;68.90;;;;;;4964951;28;20214;-69
2023/06/08 07:33:53;;;;;;;6.80;4.00;;;20.70;68.80;;;;;;4962013;28;20061;-69
2023/06/08 07:36:20;;;;;;;6.40;4.15;;;20.80;68.80;;;;;;4969823;28;20620;-69
2023/06/08 07:38:50;;;;;;;5.55;3.35;;;20.90;68.80;;;;;;4955290;28;20137;-69
2023/06/08 07:41:16;;;;;;;6.07;3.95;;;21.10;68.60;;;;;;4966746;28;20026;-69
2023/06/08 07:43:42;;;;;;;6.43;3.90;;;21.10;68.30;;;;;;4971493;28;20062;-69
2023/06/08 07:46:08;;;;;;;9.50;4.97;;;21.20;68.20;;;;;;4966974;28;20133;-68
2023/06/08 07:48:33;;;;;;;8.47;4.10;;;21.30;68.00;;;;;;4959818;28;20030;-69
2023/06/08 07:50:59;;;;;;;7.90;4.03;;;21.40;67.90;;;;;;4970778;28;20397;-68
2023/06/08 07:53:25;;;;;;;6.53;4.00;;;21.40;67.90;;;;;;4949411;28;20606;-69
2023/06/08 07:55:51;;;;;;;7.38;4.20;;;21.50;67.90;;;;;;4968319;28;20042;-69
2023/06/08 07:58:16;;;;;;;6.67;4.50;;;21.50;68.40;;;;;;4964319;28;20779;-68
2023/06/08 08:00:42;;;;;;;7.63;4.15;;;21.70;69.00;;;;;;4969179;28;20045;-69
2023/06/08 08:03:08;;;;;;;7.80;4.23;;;21.80;69.70;;;;;;4963863;28;20034;-68
2023/06/08 08:05:33;;;;;;;8.57;4.82;;;22.20;69.80;;;;;;4976227;28;20053;-69
2023/06/08 08:07:59;;;;;;;8.40;5.00;;;22.40;69.80;;;;;;4955138;28;20514;-68
2023/06/08 08:10:25;;;;;;;6.82;4.63;;;22.70;69.10;;;;;;4933493;28;20117;-69
2023/06/08 08:12:51;;;;;;;8.20;4.25;;;23.00;68.70;;;;;;4978880;28;20117;-69
2023/06/08 08:15:16;;;;;;;7.40;4.67;;;23.30;69.10;;;;;;4963881;28;20077;-68
2023/06/08 08:17:42;;;;;;;8.68;4.53;;;23.60;69.20;;;;;;4969412;28;20808;-69
2023/06/08 08:20:09;;;;;;;6.73;4.10;;;23.90;69.40;;;;;;4955918;28;20440;-68
2023/06/08 08:22:35;;;;;;;7.78;4.15;;;24.30;69.50;;;;;;4971546;28;20142;-69
2023/06/08 08:25:01;;;;;;;6.90;4.28;;;24.70;69.90;;;;;;4965346;28;20035;-68
2023/06/08 08:27:26;;;;;;;8.03;4.70;;;25.10;69.80;;;;;;4950450;28;20248;-69
2023/06/08 08:29:52;;;;;;;6.97;3.87;;;25.60;69.00;;;;;;4981932;28;20079;-69
2023/06/08 08:32:18;;;;;;;6.93;4.80;;;26.00;68.30;;;;;;4955596;28;20633;-69
2023/06/08 08:34:43;;;;;;;7.72;4.53;;;26.40;67.80;;;;;;4961603;28;20034;-69
2023/06/08 08:37:09;;;;;;;8.33;4.10;;;26.80;67.10;;;;;;4975537;28;20580;-69
2023/06/08 08:39:35;;;;;;;6.40;4.05;;;27.10;66.70;;;;;;4999695;28;20026;-69
2023/06/08 08:42:05;;;;;;;6.93;4.07;;;27.40;65.60;;;;;;4945946;28;20497;-69
2023/06/08 08:44:33;;;;;;;7.63;4.68;;;27.70;64.90;;;;;;4977564;28;20424;-69
2023/06/08 08:47:02;;;;;;;8.85;4.20;;;28.00;64.30;;;;;;4967313;28;20417;-69
2023/06/08 08:49:32;;;;;;;7.25;4.07;;;28.30;64.10;;;;;;4982003;28;20541;-69
2023/06/08 08:52:01;;;;;;;7.35;3.97;;;28.50;62.90;;;;;;4964290;28;20023;-69
2023/06/08 08:54:33;;;;;;;6.77;4.43;;;28.80;63.00;;;;;;4979618;28;20022;-69
2023/06/08 08:56:59;;;;;;;5.68;4.43;;;29.10;62.40;;;;;;4969156;28;20139;-69
2023/06/08 08:59:27;;;;;;;6.45;4.40;;;29.30;61.90;;;;;;4965109;28;20038;-69
2023/06/08 09:01:53;;;;;;;6.25;4.35;;;29.50;61.50;;;;;;4983628;28;20026;-69
2023/06/08 09:04:18;;;;;;;5.85;4.13;;;29.80;61.20;;;;;;4964268;28;20057;-69
2023/06/08 09:06:48;;;;;;;5.33;3.67;;;30.00;60.40;;;;;;4962778;28;20030;-69
2023/06/08 09:09:13;;;;;;;5.30;4.35;;;30.20;59.60;;;;;;4971093;28;20026;-68
2023/06/08 09:11:57;;;;;;;6.63;4.73;;;30.40;58.60;;;;;;4983926;28;20036;-69
2023/06/08 09:14:23;;;;;;;6.35;4.57;;;30.50;56.40;;;;;;4939932;28;20666;-69
2023/06/08 09:16:49;;;;;;;9.93;5.10;;;30.50;57.60;;;;;;4987075;28;20049;-69
2023/06/08 09:19:15;;;;;;;6.53;4.50;;;30.50;57.00;;;;;;4969830;28;20041;-69
2023/06/08 09:21:43;;;;;;;9.07;4.33;;;30.60;57.10;;;;;;4963934;28;20022;-69
2023/06/08 09:24:14;;;;;;;5.72;4.45;;;30.70;56.90;;;;;;4974417;28;20154;-69
2023/06/08 09:26:57;;;;;;;6.25;4.20;;;30.90;56.20;;;;;;4985460;28;20100;-69
2023/06/08 09:29:32;;;;;;;5.55;4.25;;;31.10;55.80;;;;;;4951457;28;20061;-70
2023/06/08 09:32:00;;;;;;;6.22;3.78;;;31.30;54.70;;;;;;4984403;28;20084;-69
2023/06/08 09:34:29;;;;;;;5.07;4.43;;;31.40;55.90;;;;;;4973106;28;20235;-69
2023/06/08 09:37:08;;;;;;;6.95;4.45;;;31.60;55.40;;;;;;4950954;28;20073;-69
2023/06/08 09:39:41;;;;;;;6.47;4.65;;;31.70;54.00;;;;;;4983927;28;20551;-69
2023/06/08 09:42:08;;;;;;;4.97;3.75;;;31.80;53.40;;;;;;4974058;28;20679;-69
2023/06/08 09:44:35;;;;;;;5.65;4.40;;;31.80;54.20;;;;;;4958580;28;20023;-69
2023/06/08 09:47:21;;;;;;;6.67;4.37;;;31.90;53.70;;;;;;4963247;28;20023;-69
2023/06/08 09:49:51;;;;;;;5.68;4.32;;;32.00;52.30;;;;;;4968953;28;20057;-69
2023/06/08 09:52:21;;;;;;;6.90;4.70;;;32.00;52.90;;;;;;4968683;28;20042;-69
2023/06/08 09:54:48;;;;;;;5.65;4.03;;;32.10;52.30;;;;;;4979585;28;20535;-69
2023/06/08 09:57:15;;;;;;;6.70;4.30;;;32.20;53.10;;;;;;4970274;28;20267;-69
2023/06/08 10:00:08;;;;;;;7.37;4.30;;;32.40;52.60;;;;;;4957597;28;20706;-69
2023/06/08 10:02:39;;;;;;;6.20;4.35;;;32.50;51.70;;;;;;4966143;28;20034;-69
2023/06/08 10:05:10;;;;;;;4.95;4.10;;;32.70;52.10;;;;;;4971586;28;20027;-69
2023/06/08 10:07:38;;;;;;;6.60;4.90;;;32.90;52.10;;;;;;4946261;28;20498;-69
2023/06/08 10:10:34;;;;;;;7.68;5.03;;;33.00;50.90;;;;;;4977754;28;20019;-69
2023/06/08 10:13:01;;;;;;;5.90;4.43;;;33.20;50.30;;;;;;4988465;28;20116;-69
2023/06/08 10:15:28;;;;;;;5.95;4.63;;;33.20;50.40;;;;;;4943323;28;20109;-69
2023/06/08 10:17:54;;;;;;;6.05;4.20;;;33.30;50.10;;;;;;4947598;28;20141;-69
2023/06/08 10:20:21;;;;;;;5.53;4.00;;;33.40;50.00;;;;;;4981883;28;20243;-69
2023/06/08 10:22:47;;;;;;;5.85;4.47;;;33.40;49.80;;;;;;4971894;28;20046;-69
2023/06/08 10:25:16;;;;;;;6.20;4.23;;;33.60;49.60;;;;;;4952388;28;20035;-69
2023/06/08 10:27:54;;;;;;;5.00;4.00;;;33.60;49.50;;;;;;4989342;28;20069;-69
2023/06/08 10:30:33;;;;;;;5.18;3.85;;;33.80;48.70;;;;;;4952315;28;20030;-69
2023/06/08 10:33:10;;;;;;;6.32;4.88;;;34.00;48.60;;;;;;4968282;28;20029;-69
2023/06/08 10:35:38;;;;;;;6.90;4.43;;;34.20;48.40;;;;;;4963601;28;20026;-69
2023/06/08 10:38:14;;;;;;;5.70;4.33;;;34.30;48.60;;;;;;4957734;28;20038;-69
2023/06/08 10:40:47;;;;;;;5.25;4.68;;;34.50;47.90;;;;;;4982750;28;20022;-70
2023/06/08 10:43:13;;;;;;;5.28;4.45;;;34.60;47.00;;;;;;4972222;28;20021;-69
2023/06/08 10:45:43;;;;;;;4.57;4.10;;;34.70;47.20;;;;;;4981785;28;20049;-70
2023/06/08 10:48:15;;;;;;;4.78;3.97;;;34.70;46.90;;;;;;4936751;28;20033;-69
2023/06/08 10:50:46;;;;;;;5.00;4.30;;;34.70;46.80;;;;;;4995151;28;20042;-69
2023/06/08 10:53:11;;;;;;;5.00;4.03;;;34.80;46.30;;;;;;4964039;28;20022;-69
2023/06/08 10:55:37;;;;;;;5.43;4.28;;;34.90;46.60;;;;;;4962550;28;20026;-69
2023/06/08 10:58:21;;;;;;;5.17;3.90;;;35.00;46.30;;;;;;4974331;28;20120;-69
2023/06/08 11:00:52;;;;;;;5.90;3.92;;;35.00;44.70;;;;;;4981543;28;20029;-69
2023/06/08 11:03:21;;;;;;;5.13;3.70;;;35.10;45.30;;;;;;4948708;28;20022;-69
2023/06/08 11:05:53;;;;;;;5.43;3.85;;;35.20;46.00;;;;;;4966667;28;20038;-69
2023/06/08 11:08:19;;;;;;;5.30;3.90;;;35.30;45.40;;;;;;4964779;28;20042;-69
2023/06/08 11:10:52;;;;;;;4.37;3.90;;;35.40;45.20;;;;;;4960610;28;20034;-69
2023/06/08 11:13:18;;;;;;;6.22;3.72;;;35.50;44.70;;;;;;4970732;28;20167;-69
2023/06/08 11:15:46;;;;;;;4.93;3.70;;;35.60;44.90;;;;;;4960220;28;20308;-69
2023/06/08 11:18:12;;;;;;;5.03;3.92;;;35.70;44.40;;;;;;4953495;28;20058;-70
2023/06/08 11:20:41;;;;;;;6.17;4.30;;;35.80;44.30;;;;;;4963309;28;20363;-69
2023/06/08 11:23:10;;;;;;;5.07;3.75;;;35.90;44.00;;;;;;4960021;28;20169;-70
2023/06/08 11:25:36;;;;;;;5.80;4.00;;;36.00;43.90;;;;;;4960616;28;20278;-69
2023/06/08 11:28:03;;;;;;;6.50;4.22;;;36.00;43.60;;;;;;4975455;28;20508;-69
2023/06/08 11:30:34;;;;;;;4.90;4.07;;;36.00;43.30;;;;;;4981597;28;20378;-69
2023/06/08 11:33:04;;;;;;;4.60;3.37;;;36.10;42.90;;;;;;4952069;28;20038;-69
2023/06/08 11:35:30;;;;;;;5.45;3.85;;;36.00;43.00;;;;;;4962209;28;20098;-69
2023/06/08 11:37:59;;;;;;;5.63;3.63;;;36.00;42.90;;;;;;4981313;28;20042;-69
2023/06/08 11:40:25;;;;;;;5.35;3.70;;;36.10;42.80;;;;;;4958026;28;20035;-69
2023/06/08 11:42:52;;;;;;;4.83;3.80;;;36.20;42.90;;;;;;4962199;28;20026;-69
2023/06/08 11:45:18;;;;;;;4.68;3.70;;;36.30;42.40;;;;;;4980225;28;20025;-69
2023/06/08 11:47:45;;;;;;;5.80;4.25;;;36.30;42.60;;;;;;4946905;28;20288;-69
2023/06/08 11:50:12;;;;;;;5.53;3.90;;;36.30;42.10;;;;;;4982196;28;20440;-69
2023/06/08 11:52:42;;;;;;;4.97;4.30;;;36.40;41.60;;;;;;4963746;28;20722;-69
2023/06/08 11:55:16;;;;;;;5.00;3.77;;;36.30;41.10;;;;;;4966145;28;20488;-69
2023/06/08 11:57:57;;;;;;;4.65;3.80;;;36.30;41.30;;;;;;4951451;28;20042;-69
2023/06/08 12:00:26;;;;;;;4.15;3.53;;;36.30;40.90;;;;;;4978314;28;20034;-69
2023/06/08 12:02:53;;;;;;;5.80;4.57;;;36.30;41.60;;;;;;4983868;28;20041;-69
2023/06/08 12:05:26;;;;;;;4.10;3.60;;;36.40;41.40;;;;;;4949033;28;20068;-69
2023/06/08 12:07:57;;;;;;;4.67;3.70;;;36.40;41.30;;;;;;4975484;28;20068;-69
2023/06/08 12:10:30;;;;;;;4.82;4.05;;;36.50;41.10;;;;;;4968758;28;20056;-69
2023/06/08 12:12:56;;;;;;;4.45;3.70;;;36.60;40.80;;;;;;4965961;28;20049;-69
2023/06/08 12:15:21;;;;;;;5.60;3.30;;;36.60;40.40;;;;;;4974726;28;20030;-69
2023/06/08 12:17:47;;;;;;;4.00;3.28;;;36.60;40.40;;;;;;4981348;28;20165;-69
2023/06/08 12:20:17;;;;;;;4.75;3.65;;;36.60;40.30;;;;;;4953716;28;20045;-70
2023/06/08 12:22:43;;;;;;;4.38;3.58;;;36.60;39.70;;;;;;4949347;28;20618;-69
2023/06/08 12:25:09;;;;;;;5.70;3.93;;;36.60;40.30;;;;;;4982879;28;20461;-69
2023/06/08 12:27:37;;;;;;;5.55;3.60;;;36.70;40.40;;;;;;4966764;28;20746;-69
2023/06/08 12:30:08;;;;;;;5.88;3.50;;;36.80;40.20;;;;;;4948976;28;20077;-69
2023/06/08 12:32:34;;;;;;;4.50;3.47;;;36.90;39.60;;;;;;4965444;28;20060;-69
2023/06/08 12:35:00;;;;;;;3.63;3.10;;;36.90;40.00;;;;;;4973507;28;20442;-69
2023/06/08 12:37:27;;;;;;;5.13;3.63;;;37.00;40.10;;;;;;4945368;28;20088;-69
2023/06/08 12:39:53;;;;;;;3.70;3.15;;;37.10;40.00;;;;;;4976974;28;20093;-69
2023/06/08 12:42:20;;;;;;;6.00;4.13;;;37.20;39.50;;;;;;4969186;28;20030;-69
2023/06/08 12:44:47;;;;;;;4.15;3.42;;;37.20;39.10;;;;;;4965955;28;20409;-69
2023/06/08 12:47:13;;;;;;;4.70;3.70;;;37.10;39.10;;;;;;4982222;28;20018;-69
2023/06/08 12:49:41;;;;;;;3.67;3.22;;;37.10;38.70;;;;;;4983151;28;20453;-69
2023/06/08 12:52:07;;;;;;;4.07;3.40;;;37.00;38.60;;;;;;4946888;28;20062;-69